Terminal Aerodrome Forecast
Issued by NWS

Home | Current Version | Previous Version | Text Only | Print | Product List | Glossary On
Versions: 1 2 3 4 5 6 7 8 9 10 11 12 13 14
000
FTUS46 KLOX 221720
TAFSBA
TAF
KSBA 221720Z 2218/2318 17007KT P6SM FEW010
     FM222000 24008KT P6SM SKC
     FM230300 VRB03KT P6SM SKC
     FM231100 VRB03KT P6SM OVC008
     FM231600 VRB03KT P6SM OVC010=

USA.gov is the U.S. government's official web portal to all federal, state and local government web resources and services.